sensor_id;sensor_type;location;lat;lon;timestamp;pressure;altitude;pressure_sealevel;temperature;humidity
78679;BME280;67994;59.334;13.528;2023-02-25T00:00:00;99500.0;;;-2.6;75.8
78679;BME280;67994;59.334;13.528;2023-02-25T00:01:03;99500.0;;;-2.6;75.9
78679;BME280;67994;59.334;13.528;2023-02-25T00:02:00;99500.0;;;-2.7;75.8
78679;BME280;67994;59.334;13.528;2023-02-25T00:03:00;99500.0;;;-2.7;76.1
78679;BME280;67994;59.334;13.528;2023-02-25T00:04:00;99500.0;;;-2.7;76.0
78679;BME280;67994;59.334;13.528;2023-02-25T00:05:00;99500.0;;;-2.7;75.9
78679;BME280;67994;59.334;13.528;2023-02-25T00:06:00;99500.0;;;-2.6;75.5
78679;BME280;67994;59.334;13.528;2023-02-25T00:07:00;99500.0;;;-2.7;75.5
78679;BME280;67994;59.334;13.528;2023-02-25T00:08:00;99500.0;;;-2.6;75.4
78679;BME280;67994;59.334;13.528;2023-02-25T00:09:00;99500.0;;;-2.6;75.0
78679;BME280;67994;59.334;13.528;2023-02-25T00:10:00;99500.0;;;-2.6;75.0
78679;BME280;67994;59.334;13.528;2023-02-25T00:11:01;99500.0;;;-2.6;74.7
78679;BME280;67994;59.334;13.528;2023-02-25T00:12:00;99500.0;;;-2.6;74.8
78679;BME280;67994;59.334;13.528;2023-02-25T00:13:00;99500.0;;;-2.6;75.1
78679;BME280;67994;59.334;13.528;2023-02-25T00:14:00;99500.0;;;-2.8;75.8
78679;BME280;67994;59.334;13.528;2023-02-25T00:15:00;99500.0;;;-2.8;75.6
78679;BME280;67994;59.334;13.528;2023-02-25T00:16:01;99500.0;;;-2.8;75.9
78679;BME280;67994;59.334;13.528;2023-02-25T00:17:00;99500.0;;;-2.8;75.6
78679;BME280;67994;59.334;13.528;2023-02-25T00:18:00;99500.0;;;-2.8;75.6
78679;BME280;67994;59.334;13.528;2023-02-25T00:19:00;99500.0;;;-2.8;75.6
78679;BME280;67994;59.334;13.528;2023-02-25T00:20:00;99500.0;;;-2.7;75.4
78679;BME280;67994;59.334;13.528;2023-02-25T00:21:03;99500.0;;;-2.8;75.7
78679;BME280;67994;59.334;13.528;2023-02-25T00:22:00;99500.0;;;-2.8;75.8
78679;BME280;67994;59.334;13.528;2023-02-25T00:23:00;99500.0;;;-2.8;76.1
78679;BME280;67994;59.334;13.528;2023-02-25T00:24:00;99600.0;;;-2.8;75.7
78679;BME280;67994;59.334;13.528;2023-02-25T00:25:00;99600.0;;;-2.9;76.1
78679;BME280;67994;59.334;13.528;2023-02-25T00:26:01;99600.0;;;-2.8;75.8
78679;BME280;67994;59.334;13.528;2023-02-25T00:27:00;99600.0;;;-2.8;75.5
78679;BME280;67994;59.334;13.528;2023-02-25T00:28:00;99600.0;;;-2.8;75.6
78679;BME280;67994;59.334;13.528;2023-02-25T00:29:00;99600.0;;;-2.8;75.4
78679;BME280;67994;59.334;13.528;2023-02-25T00:30:00;99600.0;;;-2.8;75.2
78679;BME280;67994;59.334;13.528;2023-02-25T00:31:05;99600.0;;;-2.8;75.4
78679;BME280;67994;59.334;13.528;2023-02-25T00:32:00;99600.0;;;-2.8;75.4
78679;BME280;67994;59.334;13.528;2023-02-25T00:33:00;99600.0;;;-2.9;75.8
78679;BME280;67994;59.334;13.528;2023-02-25T00:34:00;99600.0;;;-2.9;75.5
78679;BME280;67994;59.334;13.528;2023-02-25T00:35:00;99600.0;;;-2.9;75.3
78679;BME280;67994;59.334;13.528;2023-02-25T00:36:04;99600.0;;;-2.8;75.4
78679;BME280;67994;59.334;13.528;2023-02-25T00:37:00;99600.0;;;-2.9;75.5
78679;BME280;67994;59.334;13.528;2023-02-25T00:38:00;99600.0;;;-2.8;75.3
78679;BME280;67994;59.334;13.528;2023-02-25T00:39:00;99600.0;;;-2.8;75.7
78679;BME280;67994;59.334;13.528;2023-02-25T00:40:00;99600.0;;;-2.9;75.5
78679;BME280;67994;59.334;13.528;2023-02-25T00:41:03;99600.0;;;-3.0;75.7
78679;BME280;67994;59.334;13.528;2023-02-25T00:42:00;99600.0;;;-2.8;75.9
78679;BME280;67994;59.334;13.528;2023-02-25T00:43:00;99600.0;;;-3.0;75.6
78679;BME280;67994;59.334;13.528;2023-02-25T00:44:00;99600.0;;;-3.0;75.2
78679;BME280;67994;59.334;13.528;2023-02-25T00:45:00;99600.0;;;-3.0;75.5
78679;BME280;67994;59.334;13.528;2023-02-25T00:46:00;99600.0;;;-3.0;75.5
78679;BME280;67994;59.334;13.528;2023-02-25T00:47:00;99600.0;;;-2.9;75.2
78679;BME280;67994;59.334;13.528;2023-02-25T00:48:00;99600.0;;;-3.0;75.5
78679;BME280;67994;59.334;13.528;2023-02-25T00:49:00;99600.0;;;-3.0;75.4
78679;BME280;67994;59.334;13.528;2023-02-25T00:50:00;99600.0;;;-3.0;75.2
78679;BME280;67994;59.334;13.528;2023-02-25T00:51:05;99600.0;;;-3.0;75.2
78679;BME280;67994;59.334;13.528;2023-02-25T00:52:00;99600.0;;;-3.0;75.5
78679;BME280;67994;59.334;13.528;2023-02-25T00:53:00;99600.0;;;-3.1;75.4
78679;BME280;67994;59.334;13.528;2023-02-25T00:54:00;99600.0;;;-3.1;76.0
78679;BME280;67994;59.334;13.528;2023-02-25T00:55:00;99600.0;;;-3.1;75.4
78679;BME280;67994;59.334;13.528;2023-02-25T00:56:00;99600.0;;;-3.0;74.9
78679;BME280;67994;59.334;13.528;2023-02-25T00:57:00;99600.0;;;-3.0;74.7
78679;BME280;67994;59.334;13.528;2023-02-25T00:58:00;99600.0;;;-3.0;74.9
78679;BME280;67994;59.334;13.528;2023-02-25T00:59:00;99600.0;;;-3.0;74.6
78679;BME280;67994;59.334;13.528;2023-02-25T01:00:00;99600.0;;;-3.0;74.3
78679;BME280;67994;59.334;13.528;2023-02-25T01:01:00;99600.0;;;-3.0;74.9
78679;BME280;67994;59.334;13.528;2023-02-25T01:02:00;99600.0;;;-3.1;75.2
78679;BME280;67994;59.334;13.528;2023-02-25T01:03:00;99600.0;;;-3.1;74.8
78679;BME280;67994;59.334;13.528;2023-02-25T01:04:00;99600.0;;;-3.2;75.5
78679;BME280;67994;59.334;13.528;2023-02-25T01:05:00;99600.0;;;-3.1;75.6
78679;BME280;67994;59.334;13.528;2023-02-25T01:06:00;99600.0;;;-3.1;75.0
78679;BME280;67994;59.334;13.528;2023-02-25T01:07:00;99600.0;;;-3.2;75.5
78679;BME280;67994;59.334;13.528;2023-02-25T01:08:00;99600.0;;;-3.2;75.5
78679;BME280;67994;59.334;13.528;2023-02-25T01:09:00;99600.0;;;-3.1;75.0
78679;BME280;67994;59.334;13.528;2023-02-25T01:10:00;99600.0;;;-3.2;75.2
78679;BME280;67994;59.334;13.528;2023-02-25T01:11:00;99600.0;;;-3.2;75.6
78679;BME280;67994;59.334;13.528;2023-02-25T01:12:00;99600.0;;;-3.2;75.0
78679;BME280;67994;59.334;13.528;2023-02-25T01:13:00;99600.0;;;-3.2;75.4
78679;BME280;67994;59.334;13.528;2023-02-25T01:14:02;99600.0;;;-3.2;74.6
78679;BME280;67994;59.334;13.528;2023-02-25T01:15:00;99600.0;;;-3.1;74.7
78679;BME280;67994;59.334;13.528;2023-02-25T01:16:00;99600.0;;;-3.2;74.9
78679;BME280;67994;59.334;13.528;2023-02-25T01:17:00;99600.0;;;-3.2;74.9
78679;BME280;67994;59.334;13.528;2023-02-25T01:18:00;99600.0;;;-3.2;74.9
78679;BME280;67994;59.334;13.528;2023-02-25T01:19:02;99600.0;;;-3.2;74.5
78679;BME280;67994;59.334;13.528;2023-02-25T01:20:00;99600.0;;;-3.2;74.8
78679;BME280;67994;59.334;13.528;2023-02-25T01:21:00;99600.0;;;-3.2;74.6
78679;BME280;67994;59.334;13.528;2023-02-25T01:22:00;99600.0;;;-3.2;74.9
78679;BME280;67994;59.334;13.528;2023-02-25T01:23:00;99600.0;;;-3.2;75.2
78679;BME280;67994;59.334;13.528;2023-02-25T01:24:03;99600.0;;;-3.3;74.9
78679;BME280;67994;59.334;13.528;2023-02-25T01:25:00;99600.0;;;-3.2;74.9
78679;BME280;67994;59.334;13.528;2023-02-25T01:26:02;99600.0;;;-3.2;75.1
78679;BME280;67994;59.334;13.528;2023-02-25T01:27:02;99600.0;;;-3.3;75.0
78679;BME280;67994;59.334;13.528;2023-02-25T01:28:00;99600.0;;;-3.3;75.5
78679;BME280;67994;59.334;13.528;2023-02-25T01:29:00;99600.0;;;-3.4;75.5
78679;BME280;67994;59.334;13.528;2023-02-25T01:30:00;99600.0;;;-3.3;75.1
78679;BME280;67994;59.334;13.528;2023-02-25T01:31:00;99600.0;;;-3.3;74.6
78679;BME280;67994;59.334;13.528;2023-02-25T01:32:01;99600.0;;;-3.3;74.9
78679;BME280;67994;59.334;13.528;2023-02-25T01:33:00;99600.0;;;-3.3;74.8
78679;BME280;67994;59.334;13.528;2023-02-25T01:34:01;99600.0;;;-3.3;74.7
78679;BME280;67994;59.334;13.528;2023-02-25T01:35:00;99600.0;;;-3.3;74.1
78679;BME280;67994;59.334;13.528;2023-02-25T01:36:00;99600.0;;;-3.3;74.0
78679;BME280;67994;59.334;13.528;2023-02-25T01:37:00;99600.0;;;-3.2;73.9
78679;BME280;67994;59.334;13.528;2023-02-25T01:38:00;99600.0;;;-3.3;74.3
78679;BME280;67994;59.334;13.528;2023-02-25T01:39:01;99600.0;;;-3.3;74.4
78679;BME280;67994;59.334;13.528;2023-02-25T01:40:00;99600.0;;;-3.2;73.3
78679;BME280;67994;59.334;13.528;2023-02-25T01:41:01;99600.0;;;-3.2;73.4
78679;BME280;67994;59.334;13.528;2023-02-25T01:42:02;99600.0;;;-3.3;73.3
78679;BME280;67994;59.334;13.528;2023-02-25T01:43:00;99600.0;;;-3.3;73.8
78679;BME280;67994;59.334;13.528;2023-02-25T01:44:04;99600.0;;;-3.3;74.4
78679;BME280;67994;59.334;13.528;2023-02-25T01:45:20;99600.0;;;-3.3;74.1
78679;BME280;67994;59.334;13.528;2023-02-25T01:46:00;99600.0;;;-3.3;73.8
78679;BME280;67994;59.334;13.528;2023-02-25T01:47:00;99600.0;;;-3.4;74.0
78679;BME280;67994;59.334;13.528;2023-02-25T01:48:11;99600.0;;;-3.4;74.1
78679;BME280;67994;59.334;13.528;2023-02-25T01:49:01;99600.0;;;-3.4;74.6
78679;BME280;67994;59.334;13.528;2023-02-25T01:50:00;99600.0;;;-3.3;74.3
78679;BME280;67994;59.334;13.528;2023-02-25T01:51:02;99600.0;;;-3.4;74.1
78679;BME280;67994;59.334;13.528;2023-02-25T01:52:02;99600.0;;;-3.4;73.9
78679;BME280;67994;59.334;13.528;2023-02-25T01:53:01;99600.0;;;-3.4;74.0
78679;BME280;67994;59.334;13.528;2023-02-25T01:54:02;99600.0;;;-3.4;74.0
78679;BME280;67994;59.334;13.528;2023-02-25T01:55:00;99600.0;;;-3.4;73.9
78679;BME280;67994;59.334;13.528;2023-02-25T01:56:00;99600.0;;;-3.5;74.8
78679;BME280;67994;59.334;13.528;2023-02-25T01:57:02;99600.0;;;-3.4;74.0
78679;BME280;67994;59.334;13.528;2023-02-25T01:58:00;99600.0;;;-3.5;74.0
78679;BME280;67994;59.334;13.528;2023-02-25T01:59:00;99600.0;;;-3.5;74.1
78679;BME280;67994;59.334;13.528;2023-02-25T02:00:00;99600.0;;;-3.5;74.7
78679;BME280;67994;59.334;13.528;2023-02-25T02:01:00;99700.0;;;-3.5;74.7
78679;BME280;67994;59.334;13.528;2023-02-25T02:02:00;99700.0;;;-3.5;74.2
78679;BME280;67994;59.334;13.528;2023-02-25T02:03:00;99600.0;;;-3.5;75.0
78679;BME280;67994;59.334;13.528;2023-02-25T02:04:01;99700.0;;;-3.6;74.9
78679;BME280;67994;59.334;13.528;2023-02-25T02:05:00;99600.0;;;-3.5;74.4
78679;BME280;67994;59.334;13.528;2023-02-25T02:06:06;99700.0;;;-3.5;74.3
78679;BME280;67994;59.334;13.528;2023-02-25T02:07:00;99700.0;;;-3.5;74.0
78679;BME280;67994;59.334;13.528;2023-02-25T02:08:00;99700.0;;;-3.6;74.4
78679;BME280;67994;59.334;13.528;2023-02-25T02:09:03;99700.0;;;-3.6;74.5
78679;BME280;67994;59.334;13.528;2023-02-25T02:10:00;99700.0;;;-3.6;74.5
78679;BME280;67994;59.334;13.528;2023-02-25T02:11:00;99700.0;;;-3.6;74.5
78679;BME280;67994;59.334;13.528;2023-02-25T02:12:02;99700.0;;;-3.6;74.1
78679;BME280;67994;59.334;13.528;2023-02-25T02:13:00;99700.0;;;-3.5;74.4
78679;BME280;67994;59.334;13.528;2023-02-25T02:14:02;99700.0;;;-3.6;75.0
78679;BME280;67994;59.334;13.528;2023-02-25T02:15:02;99700.0;;;-3.5;74.2
78679;BME280;67994;59.334;13.528;2023-02-25T02:16:10;99700.0;;;-3.5;74.1
78679;BME280;67994;59.334;13.528;2023-02-25T02:17:09;99600.0;;;-3.5;74.2
78679;BME280;67994;59.334;13.528;2023-02-25T02:18:01;99700.0;;;-3.6;74.6
78679;BME280;67994;59.334;13.528;2023-02-25T02:19:06;99700.0;;;-3.7;74.8
78679;BME280;67994;59.334;13.528;2023-02-25T02:20:05;99700.0;;;-3.7;75.1
78679;BME280;67994;59.334;13.528;2023-02-25T02:21:13;99700.0;;;-3.6;74.6
78679;BME280;67994;59.334;13.528;2023-02-25T02:22:06;99700.0;;;-3.6;74.0
78679;BME280;67994;59.334;13.528;2023-02-25T02:23:18;99700.0;;;-3.7;74.7
78679;BME280;67994;59.334;13.528;2023-02-25T02:24:16;99700.0;;;-3.7;74.6
78679;BME280;67994;59.334;13.528;2023-02-25T02:25:15;99700.0;;;-3.6;74.2
78679;BME280;67994;59.334;13.528;2023-02-25T02:26:18;99700.0;;;-3.5;74.2
78679;BME280;67994;59.334;13.528;2023-02-25T02:27:01;99700.0;;;-3.6;74.1
78679;BME280;67994;59.334;13.528;2023-02-25T02:28:10;99700.0;;;-3.6;74.3
78679;BME280;67994;59.334;13.528;2023-02-25T02:29:16;99700.0;;;-3.7;74.6
78679;BME280;67994;59.334;13.528;2023-02-25T02:30:13;99700.0;;;-3.6;74.4
78679;BME280;67994;59.334;13.528;2023-02-25T02:31:18;99700.0;;;-3.6;74.2
78679;BME280;67994;59.334;13.528;2023-02-25T02:32:08;99700.0;;;-3.7;74.5
78679;BME280;67994;59.334;13.528;2023-02-25T02:33:03;99700.0;;;-3.7;74.9
78679;BME280;67994;59.334;13.528;2023-02-25T02:34:12;99700.0;;;-3.8;75.1
78679;BME280;67994;59.334;13.528;2023-02-25T02:35:07;99700.0;;;-3.8;75.2
78679;BME280;67994;59.334;13.528;2023-02-25T02:36:04;99700.0;;;-3.8;75.0
78679;BME280;67994;59.334;13.528;2023-02-25T02:37:06;99700.0;;;-3.7;74.8
78679;BME280;67994;59.334;13.528;2023-02-25T02:38:06;99700.0;;;-3.7;74.9
78679;BME280;67994;59.334;13.528;2023-02-25T02:39:06;99700.0;;;-3.7;74.3
78679;BME280;67994;59.334;13.528;2023-02-25T02:40:06;99700.0;;;-3.8;74.4
78679;BME280;67994;59.334;13.528;2023-02-25T02:41:05;99700.0;;;-3.7;74.5
78679;BME280;67994;59.334;13.528;2023-02-25T02:42:04;99700.0;;;-3.7;74.7
78679;BME280;67994;59.334;13.528;2023-02-25T02:43:05;99700.0;;;-3.8;74.5
78679;BME280;67994;59.334;13.528;2023-02-25T02:44:04;99700.0;;;-3.8;74.3
78679;BME280;67994;59.334;13.528;2023-02-25T02:45:04;99700.0;;;-3.7;74.1
78679;BME280;67994;59.334;13.528;2023-02-25T02:46:04;99700.0;;;-3.7;73.9
78679;BME280;67994;59.334;13.528;2023-02-25T02:47:03;99700.0;;;-3.7;74.1
78679;BME280;67994;59.334;13.528;2023-02-25T02:48:02;99700.0;;;-3.7;73.9
78679;BME280;67994;59.334;13.528;2023-02-25T02:49:05;99700.0;;;-3.8;74.4
78679;BME280;67994;59.334;13.528;2023-02-25T02:50:03;99700.0;;;-3.8;74.6
78679;BME280;67994;59.334;13.528;2023-02-25T02:51:02;99700.0;;;-3.8;74.5
78679;BME280;67994;59.334;13.528;2023-02-25T02:52:02;99700.0;;;-3.7;73.9
78679;BME280;67994;59.334;13.528;2023-02-25T02:53:02;99700.0;;;-3.8;74.5
78679;BME280;67994;59.334;13.528;2023-02-25T02:54:02;99700.0;;;-3.8;74.4
78679;BME280;67994;59.334;13.528;2023-02-25T02:55:04;99700.0;;;-3.8;74.7
78679;BME280;67994;59.334;13.528;2023-02-25T02:56:02;99700.0;;;-3.8;75.1
78679;BME280;67994;59.334;13.528;2023-02-25T02:57:01;99700.0;;;-3.8;74.9
78679;BME280;67994;59.334;13.528;2023-02-25T02:58:03;99700.0;;;-3.9;74.9
78679;BME280;67994;59.334;13.528;2023-02-25T02:59:02;99700.0;;;-3.9;74.9
78679;BME280;67994;59.334;13.528;2023-02-25T03:00:02;99700.0;;;-3.9;75.0
78679;BME280;67994;59.334;13.528;2023-02-25T03:01:04;99700.0;;;-3.9;74.9
78679;BME280;67994;59.334;13.528;2023-02-25T03:02:03;99700.0;;;-3.9;75.0
78679;BME280;67994;59.334;13.528;2023-02-25T03:03:04;99700.0;;;-3.9;75.1
78679;BME280;67994;59.334;13.528;2023-02-25T03:04:02;99700.0;;;-4.0;75.0
78679;BME280;67994;59.334;13.528;2023-02-25T03:05:02;99700.0;;;-3.8;74.5
78679;BME280;67994;59.334;13.528;2023-02-25T03:06:01;99700.0;;;-3.8;74.6
78679;BME280;67994;59.334;13.528;2023-02-25T03:07:02;99700.0;;;-3.8;75.0
78679;BME280;67994;59.334;13.528;2023-02-25T03:08:04;99700.0;;;-3.8;74.7
78679;BME280;67994;59.334;13.528;2023-02-25T03:09:05;99700.0;;;-3.8;74.4
78679;BME280;67994;59.334;13.528;2023-02-25T03:10:03;99700.0;;;-3.8;74.2
78679;BME280;67994;59.334;13.528;2023-02-25T03:11:00;99700.0;;;-3.8;74.9
78679;BME280;67994;59.334;13.528;2023-02-25T03:12:00;99700.0;;;-3.9;75.4
78679;BME280;67994;59.334;13.528;2023-02-25T03:13:00;99700.0;;;-3.9;74.7
78679;BME280;67994;59.334;13.528;2023-02-25T03:14:00;99700.0;;;-4.0;75.2
78679;BME280;67994;59.334;13.528;2023-02-25T03:15:00;99700.0;;;-4.0;75.3
78679;BME280;67994;59.334;13.528;2023-02-25T03:16:03;99700.0;;;-4.0;75.5
78679;BME280;67994;59.334;13.528;2023-02-25T03:17:07;99700.0;;;-3.9;74.6
78679;BME280;67994;59.334;13.528;2023-02-25T03:18:04;99700.0;;;-4.0;75.1
78679;BME280;67994;59.334;13.528;2023-02-25T03:19:04;99700.0;;;-4.0;75.1
78679;BME280;67994;59.334;13.528;2023-02-25T03:20:04;99700.0;;;-4.1;75.2
78679;BME280;67994;59.334;13.528;2023-02-25T03:21:02;99700.0;;;-4.1;75.4
78679;BME280;67994;59.334;13.528;2023-02-25T03:22:03;99700.0;;;-4.1;75.9
78679;BME280;67994;59.334;13.528;2023-02-25T03:23:05;99700.0;;;-4.1;75.6
78679;BME280;67994;59.334;13.528;2023-02-25T03:24:01;99700.0;;;-4.2;76.0
78679;BME280;67994;59.334;13.528;2023-02-25T03:25:04;99700.0;;;-4.2;76.1
78679;BME280;67994;59.334;13.528;2023-02-25T03:26:07;99700.0;;;-4.1;76.3
78679;BME280;67994;59.334;13.528;2023-02-25T03:28:02;99700.0;;;-4.2;75.8
78679;BME280;67994;59.334;13.528;2023-02-25T03:29:00;99700.0;;;-4.1;75.8
78679;BME280;67994;59.334;13.528;2023-02-25T03:30:04;99700.0;;;-4.1;75.9
78679;BME280;67994;59.334;13.528;2023-02-25T03:31:02;99700.0;;;-4.1;76.0
78679;BME280;67994;59.334;13.528;2023-02-25T03:32:05;99700.0;;;-4.2;75.9
78679;BME280;67994;59.334;13.528;2023-02-25T03:33:04;99700.0;;;-4.1;75.8
78679;BME280;67994;59.334;13.528;2023-02-25T03:34:02;99700.0;;;-4.2;76.0
78679;BME280;67994;59.334;13.528;2023-02-25T03:35:01;99700.0;;;-4.2;76.2
78679;BME280;67994;59.334;13.528;2023-02-25T03:36:03;99700.0;;;-4.3;76.2
78679;BME280;67994;59.334;13.528;2023-02-25T03:37:02;99700.0;;;-4.3;76.0
78679;BME280;67994;59.334;13.528;2023-02-25T03:38:07;99700.0;;;-4.3;76.2
78679;BME280;67994;59.334;13.528;2023-02-25T03:39:04;99700.0;;;-4.3;76.2
78679;BME280;67994;59.334;13.528;2023-02-25T03:40:02;99700.0;;;-4.2;76.0
78679;BME280;67994;59.334;13.528;2023-02-25T03:41:02;99700.0;;;-4.2;76.1
78679;BME280;67994;59.334;13.528;2023-02-25T03:42:02;99700.0;;;-4.2;75.8
78679;BME280;67994;59.334;13.528;2023-02-25T03:43:03;99700.0;;;-4.2;75.9
78679;BME280;67994;59.334;13.528;2023-02-25T03:44:01;99700.0;;;-4.2;76.1
78679;BME280;67994;59.334;13.528;2023-02-25T03:45:02;99700.0;;;-4.2;75.9
78679;BME280;67994;59.334;13.528;2023-02-25T03:46:01;99700.0;;;-4.2;76.4
78679;BME280;67994;59.334;13.528;2023-02-25T03:47:01;99700.0;;;-4.2;75.8
78679;BME280;67994;59.334;13.528;2023-02-25T03:48:01;99700.0;;;-4.2;76.0
78679;BME280;67994;59.334;13.528;2023-02-25T03:49:02;99700.0;;;-4.2;75.9
78679;BME280;67994;59.334;13.528;2023-02-25T03:50:05;99800.0;;;-4.2;76.0
78679;BME280;67994;59.334;13.528;2023-02-25T03:51:02;99800.0;;;-4.2;75.9
78679;BME280;67994;59.334;13.528;2023-02-25T03:52:02;99800.0;;;-4.2;76.1
78679;BME280;67994;59.334;13.528;2023-02-25T03:53:00;99800.0;;;-4.3;76.4
78679;BME280;67994;59.334;13.528;2023-02-25T03:54:00;99800.0;;;-4.2;76.1
78679;BME280;67994;59.334;13.528;2023-02-25T03:55:00;99800.0;;;-4.3;76.1
78679;BME280;67994;59.334;13.528;2023-02-25T03:56:02;99800.0;;;-4.3;76.2
78679;BME280;67994;59.334;13.528;2023-02-25T03:57:00;99800.0;;;-4.2;75.8
78679;BME280;67994;59.334;13.528;2023-02-25T03:58:00;99800.0;;;-4.2;75.4
78679;BME280;67994;59.334;13.528;2023-02-25T03:59:00;99800.0;;;-4.2;75.8
78679;BME280;67994;59.334;13.528;2023-02-25T04:00:00;99800.0;;;-4.3;76.2
78679;BME280;67994;59.334;13.528;2023-02-25T04:01:03;99800.0;;;-4.2;75.6
78679;BME280;67994;59.334;13.528;2023-02-25T04:02:00;99800.0;;;-4.3;76.1
78679;BME280;67994;59.334;13.528;2023-02-25T04:03:00;99800.0;;;-4.2;75.6
78679;BME280;67994;59.334;13.528;2023-02-25T04:04:00;99800.0;;;-4.2;75.4
78679;BME280;67994;59.334;13.528;2023-02-25T04:05:00;99800.0;;;-4.3;75.9
78679;BME280;67994;59.334;13.528;2023-02-25T04:06:00;99800.0;;;-4.2;76.2
78679;BME280;67994;59.334;13.528;2023-02-25T04:07:00;99800.0;;;-4.2;75.6
78679;BME280;67994;59.334;13.528;2023-02-25T04:08:00;99800.0;;;-4.2;75.7
78679;BME280;67994;59.334;13.528;2023-02-25T04:09:00;99800.0;;;-4.2;75.6
78679;BME280;67994;59.334;13.528;2023-02-25T04:10:00;99800.0;;;-4.2;76.0
78679;BME280;67994;59.334;13.528;2023-02-25T04:11:00;99800.0;;;-4.2;75.7
78679;BME280;67994;59.334;13.528;2023-02-25T04:12:00;99800.0;;;-4.3;76.2
78679;BME280;67994;59.334;13.528;2023-02-25T04:13:00;99800.0;;;-4.3;76.2
78679;BME280;67994;59.334;13.528;2023-02-25T04:14:00;99800.0;;;-4.4;76.4
78679;BME280;67994;59.334;13.528;2023-02-25T04:15:00;99800.0;;;-4.3;75.9
78679;BME280;67994;59.334;13.528;2023-02-25T04:16:00;99800.0;;;-4.4;76.4
78679;BME280;67994;59.334;13.528;2023-02-25T04:17:00;99800.0;;;-4.4;76.7
78679;BME280;67994;59.334;13.528;2023-02-25T04:18:00;99800.0;;;-4.4;76.7
78679;BME280;67994;59.334;13.528;2023-02-25T04:19:00;99800.0;;;-4.4;76.9
78679;BME280;67994;59.334;13.528;2023-02-25T04:20:00;99800.0;;;-4.4;76.8
78679;BME280;67994;59.334;13.528;2023-02-25T04:21:00;99800.0;;;-4.3;77.0
78679;BME280;67994;59.334;13.528;2023-02-25T04:22:00;99800.0;;;-4.3;76.9
78679;BME280;67994;59.334;13.528;2023-02-25T04:23:00;99800.0;;;-4.4;76.9
78679;BME280;67994;59.334;13.528;2023-02-25T04:24:00;99800.0;;;-4.4;77.0
78679;BME280;67994;59.334;13.528;2023-02-25T04:25:00;99800.0;;;-4.4;77.4
78679;BME280;67994;59.334;13.528;2023-02-25T04:26:00;99800.0;;;-4.4;77.2
78679;BME280;67994;59.334;13.528;2023-02-25T04:27:00;99800.0;;;-4.5;77.2
78679;BME280;67994;59.334;13.528;2023-02-25T04:28:00;99800.0;;;-4.5;77.2
78679;BME280;67994;59.334;13.528;2023-02-25T04:29:00;99800.0;;;-4.5;77.3
78679;BME280;67994;59.334;13.528;2023-02-25T04:30:00;99800.0;;;-4.5;77.3
78679;BME280;67994;59.334;13.528;2023-02-25T04:31:00;99800.0;;;-4.5;77.5
78679;BME280;67994;59.334;13.528;2023-02-25T04:32:00;99800.0;;;-4.5;77.4
78679;BME280;67994;59.334;13.528;2023-02-25T04:33:00;99800.0;;;-4.6;77.6
78679;BME280;67994;59.334;13.528;2023-02-25T04:34:00;99800.0;;;-4.4;77.0
78679;BME280;67994;59.334;13.528;2023-02-25T04:35:00;99800.0;;;-4.5;77.2
78679;BME280;67994;59.334;13.528;2023-02-25T04:36:00;99800.0;;;-4.4;76.7
78679;BME280;67994;59.334;13.528;2023-02-25T04:37:00;99800.0;;;-4.4;76.5
78679;BME280;67994;59.334;13.528;2023-02-25T04:38:00;99800.0;;;-4.4;76.3
78679;BME280;67994;59.334;13.528;2023-02-25T04:39:02;99800.0;;;-4.4;76.9
78679;BME280;67994;59.334;13.528;2023-02-25T04:40:00;99800.0;;;-4.4;77.1
78679;BME280;67994;59.334;13.528;2023-02-25T04:41:00;99800.0;;;-4.5;77.3
78679;BME280;67994;59.334;13.528;2023-02-25T04:42:00;99800.0;;;-4.4;77.0
78679;BME280;67994;59.334;13.528;2023-02-25T04:43:00;99800.0;;;-4.4;77.0
78679;BME280;67994;59.334;13.528;2023-02-25T04:44:00;99800.0;;;-4.4;76.7
78679;BME280;67994;59.334;13.528;2023-02-25T04:45:00;99800.0;;;-4.4;76.5
78679;BME280;67994;59.334;13.528;2023-02-25T04:46:00;99800.0;;;-4.5;76.8
78679;BME280;67994;59.334;13.528;2023-02-25T04:47:00;99800.0;;;-4.5;77.2
78679;BME280;67994;59.334;13.528;2023-02-25T04:48:00;99800.0;;;-4.5;77.0
78679;BME280;67994;59.334;13.528;2023-02-25T04:49:00;99800.0;;;-4.5;76.8
78679;BME280;67994;59.334;13.528;2023-02-25T04:50:00;99800.0;;;-4.4;76.9
78679;BME280;67994;59.334;13.528;2023-02-25T04:51:00;99800.0;;;-4.5;77.0
78679;BME280;67994;59.334;13.528;2023-02-25T04:52:00;99800.0;;;-4.4;76.6
78679;BME280;67994;59.334;13.528;2023-02-25T04:53:00;99800.0;;;-4.4;76.4
78679;BME280;67994;59.334;13.528;2023-02-25T04:54:00;99800.0;;;-4.4;76.5
78679;BME280;67994;59.334;13.528;2023-02-25T04:55:00;99800.0;;;-4.4;76.6
78679;BME280;67994;59.334;13.528;2023-02-25T04:56:01;99800.0;;;-4.3;76.6
78679;BME280;67994;59.334;13.528;2023-02-25T04:57:00;99800.0;;;-4.4;76.3
78679;BME280;67994;59.334;13.528;2023-02-25T04:58:00;99800.0;;;-4.4;76.9
78679;BME280;67994;59.334;13.528;2023-02-25T04:59:00;99800.0;;;-4.4;76.9
78679;BME280;67994;59.334;13.528;2023-02-25T05:00:00;99800.0;;;-4.4;76.5
78679;BME280;67994;59.334;13.528;2023-02-25T05:01:00;99800.0;;;-4.5;77.0
78679;BME280;67994;59.334;13.528;2023-02-25T05:02:00;99800.0;;;-4.4;77.0
78679;BME280;67994;59.334;13.528;2023-02-25T05:03:00;99800.0;;;-4.3;77.1
78679;BME280;67994;59.334;13.528;2023-02-25T05:04:00;99800.0;;;-4.4;76.8
78679;BME280;67994;59.334;13.528;2023-02-25T05:05:00;99800.0;;;-4.6;77.1
78679;BME280;67994;59.334;13.528;2023-02-25T05:06:00;99800.0;;;-4.5;77.2
78679;BME280;67994;59.334;13.528;2023-02-25T05:07:00;99800.0;;;-4.5;77.4
78679;BME280;67994;59.334;13.528;2023-02-25T05:08:00;99800.0;;;-4.5;77.5
78679;BME280;67994;59.334;13.528;2023-02-25T05:09:00;99800.0;;;-4.6;77.5
78679;BME280;67994;59.334;13.528;2023-02-25T05:10:00;99800.0;;;-4.6;77.5
78679;BME280;67994;59.334;13.528;2023-02-25T05:11:01;99800.0;;;-4.7;77.3
78679;BME280;67994;59.334;13.528;2023-02-25T05:12:00;99800.0;;;-4.7;77.3
78679;BME280;67994;59.334;13.528;2023-02-25T05:13:00;99800.0;;;-4.6;77.1
78679;BME280;67994;59.334;13.528;2023-02-25T05:14:00;99800.0;;;-4.6;76.9
78679;BME280;67994;59.334;13.528;2023-02-25T05:15:00;99800.0;;;-4.5;77.0
78679;BME280;67994;59.334;13.528;2023-02-25T05:16:09;99800.0;;;-4.6;77.2
78679;BME280;67994;59.334;13.528;2023-02-25T05:17:00;99800.0;;;-4.6;77.3
78679;BME280;67994;59.334;13.528;2023-02-25T05:18:00;99800.0;;;-4.6;77.2
78679;BME280;67994;59.334;13.528;2023-02-25T05:19:00;99800.0;;;-4.5;76.8
78679;BME280;67994;59.334;13.528;2023-02-25T05:20:00;99800.0;;;-4.6;76.9
78679;BME280;67994;59.334;13.528;2023-02-25T05:21:00;99800.0;;;-4.7;77.2
78679;BME280;67994;59.334;13.528;2023-02-25T05:22:00;99800.0;;;-4.7;77.2
78679;BME280;67994;59.334;13.528;2023-02-25T05:23:00;99800.0;;;-4.6;77.0
78679;BME280;67994;59.334;13.528;2023-02-25T05:24:00;99800.0;;;-4.6;77.3
78679;BME280;67994;59.334;13.528;2023-02-25T05:25:00;99800.0;;;-4.6;76.9
78679;BME280;67994;59.334;13.528;2023-02-25T05:26:00;99800.0;;;-4.5;76.6
78679;BME280;67994;59.334;13.528;2023-02-25T05:27:00;99800.0;;;-4.6;76.7